Time;durP1;ratioP1;P1;durP2;ratioP2;P2;SDS_P1;SDS_P2;PMS_P1;PMS_P2;Temp;Humidity;BMP_temperature;BMP_pressure;BME280_temperature;BME280_humidity;BME280_pressure;Samples;Min_cycle;Max_cycle;Signal;HPM_P1;HPM_P2
2023/07/18 00:02:03;;;;;;;89.05;37.72;;;;;;;;;;10547542;28;20028;-87
2023/07/18 00:07:05;;;;;;;254.55;50.58;;;;;;;;;;10546351;28;20042;-86
2023/07/18 00:12:06;;;;;;;112.88;38.88;;;;;;;;;;10542229;28;20044;-86
2023/07/18 00:17:07;;;;;;;97.35;36.63;;;;;;;;;;10569321;28;20020;-86
2023/07/18 00:22:08;;;;;;;219.40;37.17;;;;;;;;;;10551845;28;20020;-85
2023/07/18 00:27:09;;;;;;;51.70;28.58;;;;;;;;;;10529745;28;20028;-87
2023/07/18 00:32:11;;;;;;;151.85;44.10;;;;;;;;;;10560541;28;20028;-85
2023/07/18 00:37:12;;;;;;;174.90;47.60;;;;;;;;;;10550242;28;20689;-85
2023/07/18 00:42:13;;;;;;;77.63;41.05;;;;;;;;;;10544200;28;20038;-85
2023/07/18 00:47:14;;;;;;;59.70;34.47;;;;;;;;;;10567019;28;20038;-86
2023/07/18 00:52:15;;;;;;;73.47;38.30;;;;;;;;;;10566320;28;20035;-86
2023/07/18 00:57:16;;;;;;;84.15;35.42;;;;;;;;;;10575889;28;20050;-85
2023/07/18 01:02:17;;;;;;;55.88;31.70;;;;;;;;;;10539503;28;20027;-85
2023/07/18 01:07:20;;;;;;;87.35;44.78;;;;;;;;;;10531927;28;20016;-85
2023/07/18 01:12:21;;;;;;;83.38;43.45;;;;;;;;;;10533581;28;20468;-86
2023/07/18 01:17:22;;;;;;;104.50;50.38;;;;;;;;;;10533529;28;20123;-87
2023/07/18 01:22:23;;;;;;;87.93;45.42;;;;;;;;;;10530741;28;20063;-85
2023/07/18 01:27:24;;;;;;;64.28;35.78;;;;;;;;;;10530376;28;20020;-86
2023/07/18 01:32:25;;;;;;;572.40;71.68;;;;;;;;;;10530547;28;20046;-86
2023/07/18 01:37:26;;;;;;;455.67;53.22;;;;;;;;;;10532082;28;20078;-85
2023/07/18 01:42:27;;;;;;;57.25;32.20;;;;;;;;;;10532037;28;20051;-85
2023/07/18 01:47:28;;;;;;;91.65;44.65;;;;;;;;;;10531169;28;20142;-86
2023/07/18 01:52:29;;;;;;;118.55;55.65;;;;;;;;;;10531134;28;20057;-84
2023/07/18 01:57:31;;;;;;;122.90;55.90;;;;;;;;;;10531228;28;20036;-85
2023/07/18 02:02:32;;;;;;;103.22;55.50;;;;;;;;;;10530588;28;20085;-84
2023/07/18 02:07:33;;;;;;;71.95;39.70;;;;;;;;;;10529785;28;20073;-86
2023/07/18 02:12:34;;;;;;;49.88;28.88;;;;;;;;;;10528857;28;20044;-86
2023/07/18 02:17:35;;;;;;;39.25;23.38;;;;;;;;;;10528866;28;20466;-86
2023/07/18 02:22:36;;;;;;;24.95;14.52;;;;;;;;;;10525264;28;20028;-86
2023/07/18 02:27:39;;;;;;;20.98;13.98;;;;;;;;;;10547725;28;20114;-85
2023/07/18 02:32:41;;;;;;;14.07;10.10;;;;;;;;;;10562864;28;20075;-85
2023/07/18 02:37:42;;;;;;;12.52;8.32;;;;;;;;;;10553579;28;20051;-86
2023/07/18 02:42:43;;;;;;;17.05;7.75;;;;;;;;;;10546619;28;20028;-87
2023/07/18 02:47:44;;;;;;;16.65;6.93;;;;;;;;;;10558265;28;20043;-87
2023/07/18 02:52:45;;;;;;;14.93;7.00;;;;;;;;;;10544307;28;20298;-87
2023/07/18 02:57:46;;;;;;;10.40;6.32;;;;;;;;;;10562381;28;20042;-86
2023/07/18 03:02:48;;;;;;;12.35;6.28;;;;;;;;;;10556804;28;20028;-87
2023/07/18 03:07:49;;;;;;;12.48;5.70;;;;;;;;;;10550507;28;20032;-86
2023/07/18 03:12:50;;;;;;;10.18;5.85;;;;;;;;;;10560322;28;20148;-86
2023/07/18 03:17:51;;;;;;;10.25;5.53;;;;;;;;;;10553211;28;20081;-86
2023/07/18 03:22:52;;;;;;;10.95;5.60;;;;;;;;;;10557274;28;20526;-85
2023/07/18 03:27:53;;;;;;;11.95;5.63;;;;;;;;;;10555398;28;20035;-85
2023/07/18 03:32:54;;;;;;;16.33;5.65;;;;;;;;;;10558093;28;20406;-87
2023/07/18 03:37:55;;;;;;;11.45;5.55;;;;;;;;;;10550426;28;20430;-86
2023/07/18 03:42:56;;;;;;;12.20;5.45;;;;;;;;;;10569695;28;20024;-86
2023/07/18 03:47:57;;;;;;;16.02;6.07;;;;;;;;;;10545360;28;20027;-88
2023/07/18 03:52:58;;;;;;;14.10;5.82;;;;;;;;;;10566948;28;20467;-85
2023/07/18 03:57:59;;;;;;;12.27;5.70;;;;;;;;;;10567603;28;20031;-85
2023/07/18 04:03:00;;;;;;;11.95;6.20;;;;;;;;;;10553889;28;20047;-85
2023/07/18 04:08:01;;;;;;;10.60;6.43;;;;;;;;;;10572680;28;20485;-88
2023/07/18 04:13:02;;;;;;;11.00;5.32;;;;;;;;;;10576212;28;20035;-86
2023/07/18 04:18:03;;;;;;;9.50;5.13;;;;;;;;;;10560966;27;20105;-85
2023/07/18 04:23:04;;;;;;;7.68;5.05;;;;;;;;;;10547486;28;20032;-87
2023/07/18 04:28:05;;;;;;;11.57;6.22;;;;;;;;;;10549341;28;20039;-87
2023/07/18 04:33:11;;;;;;;10.15;5.50;;;;;;;;;;10566543;28;20043;-86
2023/07/18 04:38:12;;;;;;;;;;;;;;;;;;10569087;28;20036;-87
2023/07/18 04:43:13;;;;;;;10.10;5.22;;;;;;;;;;10520405;28;19908;-83
2023/07/18 04:48:14;;;;;;;12.82;5.30;;;;;;;;;;10554591;28;20820;-85
2023/07/18 04:53:15;;;;;;;12.05;6.03;;;;;;;;;;10551428;28;20039;-83
2023/07/18 04:58:17;;;;;;;11.70;6.22;;;;;;;;;;10549644;28;20040;-82
2023/07/18 05:03:18;;;;;;;10.02;5.15;;;;;;;;;;10532523;28;20030;-84
2023/07/18 05:08:19;;;;;;;9.15;5.15;;;;;;;;;;10531942;28;20047;-84
2023/07/18 05:13:20;;;;;;;8.18;4.45;;;;;;;;;;10524851;28;20044;-82
2023/07/18 05:18:21;;;;;;;7.90;4.55;;;;;;;;;;10519850;28;20028;-83
2023/07/18 05:23:22;;;;;;;6.93;4.47;;;;;;;;;;10525940;28;20032;-83
2023/07/18 05:28:24;;;;;;;9.90;4.60;;;;;;;;;;10528487;28;20392;-82
2023/07/18 05:33:25;;;;;;;9.25;4.70;;;;;;;;;;10531622;28;20487;-82
2023/07/18 05:38:26;;;;;;;9.80;5.50;;;;;;;;;;10540156;28;20058;-84
2023/07/18 05:43:27;;;;;;;7.22;4.90;;;;;;;;;;10541372;28;20035;-83
2023/07/18 05:48:28;;;;;;;8.32;5.00;;;;;;;;;;10573212;28;20027;-83
2023/07/18 05:53:29;;;;;;;10.80;5.57;;;;;;;;;;10547005;28;20137;-83
2023/07/18 05:58:30;;;;;;;6.95;4.60;;;;;;;;;;10537497;28;20541;-82
2023/07/18 06:03:31;;;;;;;8.55;4.78;;;;;;;;;;10571373;28;20034;-83
2023/07/18 06:08:32;;;;;;;9.45;5.00;;;;;;;;;;10572523;28;20028;-82
2023/07/18 06:13:33;;;;;;;7.25;4.35;;;;;;;;;;10571456;28;20554;-83
2023/07/18 06:18:35;;;;;;;6.00;3.60;;;;;;;;;;10569708;28;20024;-81
2023/07/18 06:23:36;;;;;;;6.97;4.28;;;;;;;;;;10548262;28;20111;-82
2023/07/18 06:28:37;;;;;;;9.00;4.53;;;;;;;;;;10526011;28;20399;-82
2023/07/18 06:33:38;;;;;;;8.18;3.78;;;;;;;;;;10526855;28;20035;-83
2023/07/18 06:38:39;;;;;;;6.22;3.60;;;;;;;;;;10519157;28;20082;-85
2023/07/18 06:43:40;;;;;;;8.20;4.00;;;;;;;;;;10527080;28;20034;-84
2023/07/18 06:48:41;;;;;;;6.15;3.10;;;;;;;;;;10536176;28;20640;-85
2023/07/18 06:53:42;;;;;;;5.53;3.72;;;;;;;;;;10556519;28;20048;-83
2023/07/18 06:58:43;;;;;;;5.55;2.95;;;;;;;;;;10562828;28;20027;-83
2023/07/18 07:03:44;;;;;;;5.20;3.30;;;;;;;;;;10570692;28;20479;-84
2023/07/18 07:08:45;;;;;;;4.78;2.97;;;;;;;;;;10568905;28;20028;-84
2023/07/18 07:13:46;;;;;;;4.97;2.67;;;;;;;;;;10568740;28;20042;-84
2023/07/18 07:18:49;;;;;;;5.25;2.80;;;;;;;;;;10571183;28;20475;-85
2023/07/18 07:23:50;;;;;;;5.00;2.97;;;;;;;;;;10569445;28;20027;-85
2023/07/18 07:28:51;;;;;;;5.75;2.97;;;;;;;;;;10570778;28;20020;-85
2023/07/18 07:33:52;;;;;;;5.32;3.20;;;;;;;;;;10568828;28;20057;-85
2023/07/18 07:38:53;;;;;;;7.10;3.55;;;;;;;;;;10569247;28;20138;-84
2023/07/18 07:43:54;;;;;;;6.57;3.20;;;;;;;;;;10569192;28;20026;-85
2023/07/18 07:48:55;;;;;;;5.60;3.80;;;;;;;;;;10567169;28;20461;-83
2023/07/18 07:53:58;;;;;;;7.20;3.17;;;;;;;;;;10568483;28;20061;-84
2023/07/18 07:58:59;;;;;;;4.57;2.72;;;;;;;;;;10567368;28;20031;-84
2023/07/18 08:04:00;;;;;;;7.03;3.40;;;;;;;;;;10569185;28;20137;-85
2023/07/18 08:09:02;;;;;;;6.75;2.70;;;;;;;;;;10568638;28;20035;-84
2023/07/18 08:14:03;;;;;;;3.97;2.40;;;;;;;;;;10568214;28;20038;-84
2023/07/18 08:19:05;;;;;;;5.30;3.08;;;;;;;;;;10567913;28;20035;-88
2023/07/18 08:24:06;;;;;;;15.23;2.55;;;;;;;;;;10567539;28;20032;-86
2023/07/18 08:29:07;;;;;;;3.28;2.20;;;;;;;;;;10568016;28;20410;-86
2023/07/18 08:34:08;;;;;;;4.63;2.15;;;;;;;;;;10565958;28;20123;-85
2023/07/18 08:39:09;;;;;;;4.38;1.80;;;;;;;;;;10566726;28;20448;-86
2023/07/18 08:44:15;;;;;;;3.53;1.88;;;;;;;;;;10566730;28;20047;-86
2023/07/18 08:49:22;;;;;;;3.35;2.22;;;;;;;;;;10568090;28;20485;-86
2023/07/18 08:54:23;;;;;;;8.15;2.58;;;;;;;;;;10576274;28;20094;-85
2023/07/18 08:59:24;;;;;;;5.20;2.70;;;;;;;;;;10547300;28;20131;-87
2023/07/18 09:04:25;;;;;;;4.10;2.47;;;;;;;;;;10569142;28;20604;-85
2023/07/18 09:09:26;;;;;;;4.32;2.10;;;;;;;;;;10574609;28;20035;-87
2023/07/18 09:14:36;;;;;;;3.17;1.90;;;;;;;;;;10575524;28;20046;-86
2023/07/18 09:19:45;;;;;;;2.92;2.13;;;;;;;;;;10575804;28;20028;-86
2023/07/18 09:24:46;;;;;;;3.03;1.70;;;;;;;;;;10574320;27;20071;-87
2023/07/18 09:29:48;;;;;;;3.42;2.10;;;;;;;;;;10574502;28;20043;-86
2023/07/18 09:34:56;;;;;;;4.13;2.05;;;;;;;;;;10572082;28;20407;-86
2023/07/18 09:39:57;;;;;;;2.15;1.60;;;;;;;;;;10573887;28;20055;-85
2023/07/18 09:44:59;;;;;;;3.08;1.70;;;;;;;;;;10573451;28;20020;-86
2023/07/18 09:50:01;;;;;;;3.50;1.55;;;;;;;;;;10571902;28;20023;-84
2023/07/18 09:55:04;;;;;;;2.10;1.85;;;;;;;;;;10571679;28;20039;-85
2023/07/18 10:00:05;;;;;;;2.25;1.90;;;;;;;;;;10572836;28;20040;-85
2023/07/18 10:05:10;;;;;;;5.05;1.80;;;;;;;;;;10574000;28;20149;-83
2023/07/18 10:10:11;;;;;;;;;;;;;;;;;;10573909;28;20574;-84
2023/07/18 10:15:12;;;;;;;3.13;1.77;;;;;;;;;;10571940;28;19911;-83
2023/07/18 10:20:19;;;;;;;2.70;1.40;;;;;;;;;;10571279;28;20020;-85
2023/07/18 10:25:20;;;;;;;4.53;2.05;;;;;;;;;;10571407;28;20028;-84
2023/07/18 10:30:21;;;;;;;2.40;1.25;;;;;;;;;;10559327;28;20054;-83
2023/07/18 10:35:24;;;;;;;3.00;1.73;;;;;;;;;;10569889;28;20395;-83
2023/07/18 10:40:35;;;;;;;4.30;1.67;;;;;;;;;;10569695;28;20056;-85
2023/07/18 10:45:37;;;;;;;2.67;1.20;;;;;;;;;;10571152;28;20069;-86
2023/07/18 10:50:39;;;;;;;1.92;1.38;;;;;;;;;;10570749;28;20387;-86
2023/07/18 10:55:40;;;;;;;3.88;1.65;;;;;;;;;;10569433;28;20448;-86
2023/07/18 11:00:41;;;;;;;3.22;1.67;;;;;;;;;;10568921;28;20035;-86
2023/07/18 11:05:44;;;;;;;4.20;1.63;;;;;;;;;;10569541;28;20077;-86
2023/07/18 11:10:45;;;;;;;4.25;1.50;;;;;;;;;;10570178;28;20047;-86
2023/07/18 11:15:46;;;;;;;3.25;1.70;;;;;;;;;;10568873;28;20044;-85
2023/07/18 11:20:47;;;;;;;3.38;1.60;;;;;;;;;;10568513;28;20027;-86
2023/07/18 11:25:48;;;;;;;2.20;1.65;;;;;;;;;;10568634;28;20035;-86
2023/07/18 11:30:51;;;;;;;2.67;1.40;;;;;;;;;;10569845;28;20024;-87
2023/07/18 11:35:52;;;;;;;3.38;1.52;;;;;;;;;;10567810;28;20035;-86
2023/07/18 11:40:53;;;;;;;2.05;1.70;;;;;;;;;;10567574;28;20081;-87
2023/07/18 11:45:57;;;;;;;2.03;1.27;;;;;;;;;;10567854;28;20517;-87
2023/07/18 11:50:58;;;;;;;2.40;1.23;;;;;;;;;;10568048;28;20059;-87
2023/07/18 11:55:59;;;;;;;3.15;1.65;;;;;;;;;;10567318;28;20036;-86
2023/07/18 12:01:00;;;;;;;4.93;1.70;;;;;;;;;;10568974;27;20019;-87
2023/07/18 12:06:01;;;;;;;3.80;1.85;;;;;;;;;;10567771;28;20027;-87
2023/07/18 12:11:03;;;;;;;2.70;1.60;;;;;;;;;;10568030;28;20031;-87
2023/07/18 12:16:05;;;;;;;2.63;1.52;;;;;;;;;;10568293;28;20578;-87
2023/07/18 12:21:06;;;;;;;2.10;1.40;;;;;;;;;;10553829;28;20475;-88
2023/07/18 12:26:07;;;;;;;2.42;1.45;;;;;;;;;;10569940;28;20016;-87
2023/07/18 12:31:08;;;;;;;3.47;1.83;;;;;;;;;;10575835;28;20019;-87
2023/07/18 12:36:09;;;;;;;2.33;1.60;;;;;;;;;;10575959;27;20027;-87
2023/07/18 12:41:10;;;;;;;3.33;1.60;;;;;;;;;;10567974;28;20125;-86
2023/07/18 12:46:11;;;;;;;2.85;1.27;;;;;;;;;;10569556;28;20050;-86
2023/07/18 12:51:12;;;;;;;2.17;1.20;;;;;;;;;;10575180;28;20127;-86
2023/07/18 12:56:14;;;;;;;3.90;1.40;;;;;;;;;;10576589;28;20813;-86
2023/07/18 13:01:16;;;;;;;2.63;1.48;;;;;;;;;;10575262;28;20028;-87
2023/07/18 13:06:17;;;;;;;1.80;1.10;;;;;;;;;;10575854;27;20028;-87
2023/07/18 13:11:18;;;;;;;1.98;1.25;;;;;;;;;;10573945;28;20055;-86
2023/07/18 13:16:19;;;;;;;3.83;1.60;;;;;;;;;;10574059;28;20072;-86
2023/07/18 13:21:20;;;;;;;2.13;1.30;;;;;;;;;;10573547;28;20472;-86
2023/07/18 13:26:21;;;;;;;2.45;1.65;;;;;;;;;;10568625;28;20398;-87
2023/07/18 13:31:22;;;;;;;3.90;1.73;;;;;;;;;;10567444;28;20030;-89
2023/07/18 13:36:23;;;;;;;2.22;1.48;;;;;;;;;;10574308;28;20039;-88
2023/07/18 13:41:24;;;;;;;5.10;3.28;;;;;;;;;;10573809;28;20062;-88
2023/07/18 13:46:26;;;;;;;2.65;1.63;;;;;;;;;;10572179;28;20035;-87
2023/07/18 13:51:29;;;;;;;3.95;1.80;;;;;;;;;;10573803;28;20072;-87
2023/07/18 13:56:30;;;;;;;2.00;1.40;;;;;;;;;;10573078;28;20024;-88
2023/07/18 14:01:31;;;;;;;2.00;1.52;;;;;;;;;;10573453;28;20077;-87
2023/07/18 14:06:32;;;;;;;3.70;1.70;;;;;;;;;;10573835;28;20424;-87
2023/07/18 14:11:33;;;;;;;2.00;1.40;;;;;;;;;;10571953;28;20095;-88
2023/07/18 14:16:34;;;;;;;3.53;1.50;;;;;;;;;;10570780;28;20035;-89
2023/07/18 14:21:35;;;;;;;2.42;1.48;;;;;;;;;;10570709;28;20027;-87
2023/07/18 14:26:36;;;;;;;3.22;1.85;;;;;;;;;;10570715;28;20034;-88
2023/07/18 14:31:38;;;;;;;2.65;1.60;;;;;;;;;;10570797;28;20035;-87
2023/07/18 14:36:39;;;;;;;3.85;1.70;;;;;;;;;;10569542;28;20019;-87
2023/07/18 14:41:40;;;;;;;4.82;1.80;;;;;;;;;;10554342;28;20459;-88
2023/07/18 14:46:41;;;;;;;3.60;2.10;;;;;;;;;;10567978;28;20051;-87
2023/07/18 14:51:42;;;;;;;4.50;1.50;;;;;;;;;;10540076;28;20035;-86
2023/07/18 14:56:44;;;;;;;2.33;1.63;;;;;;;;;;10530310;28;20028;-84
2023/07/18 15:01:45;;;;;;;3.92;1.95;;;;;;;;;;10547714;28;20119;-86
2023/07/18 15:06:46;;;;;;;3.38;1.95;;;;;;;;;;10545007;28;20028;-86
2023/07/18 15:11:47;;;;;;;2.42;1.70;;;;;;;;;;10534511;28;20077;-87
2023/07/18 15:16:49;;;;;;;3.65;1.65;;;;;;;;;;10543469;28;20032;-86
2023/07/18 15:21:50;;;;;;;2.47;1.52;;;;;;;;;;10549047;28;20035;-86
2023/07/18 15:26:51;;;;;;;3.65;1.42;;;;;;;;;;10568060;28;20099;-85
2023/07/18 15:31:52;;;;;;;3.00;1.90;;;;;;;;;;10542145;28;20055;-85
2023/07/18 15:36:53;;;;;;;3.75;1.48;;;;;;;;;;10545222;28;20024;-85
2023/07/18 15:41:54;;;;;;;2.20;1.70;;;;;;;;;;10527622;28;20111;-84
2023/07/18 15:46:58;;;;;;;2.53;1.50;;;;;;;;;;10532178;28;20044;-81
2023/07/18 15:51:59;;;;;;;5.33;1.80;;;;;;;;;;10525806;28;20050;-85
2023/07/18 15:57:00;;;;;;;2.03;1.50;;;;;;;;;;10526791;28;20278;-85
2023/07/18 16:02:02;;;;;;;4.18;1.42;;;;;;;;;;10526147;28;20032;-86
2023/07/18 16:07:03;;;;;;;2.85;2.20;;;;;;;;;;10526909;28;20016;-86
2023/07/18 16:12:04;;;;;;;2.28;1.30;;;;;;;;;;10518463;28;20079;-89
2023/07/18 16:17:09;;;;;;;2.20;1.50;;;;;;;;;;10542850;28;20027;-85
2023/07/18 16:22:10;;;;;;;5.95;1.55;;;;;;;;;;10531578;28;20034;-85
2023/07/18 16:27:11;;;;;;;2.58;1.60;;;;;;;;;;10529583;28;20032;-85
2023/07/18 16:32:12;;;;;;;2.75;1.58;;;;;;;;;;10527806;28;20040;-85
2023/07/18 16:37:13;;;;;;;2.85;1.83;;;;;;;;;;10531058;28;20048;-85
2023/07/18 16:42:14;;;;;;;3.72;1.60;;;;;;;;;;10540618;28;20131;-87
2023/07/18 16:47:15;;;;;;;3.47;1.92;;;;;;;;;;10540625;28;20100;-85
2023/07/18 16:52:16;;;;;;;3.80;1.63;;;;;;;;;;10531049;28;20035;-85
2023/07/18 16:57:17;;;;;;;3.03;1.90;;;;;;;;;;10523973;28;20467;-85
2023/07/18 17:02:18;;;;;;;4.38;2.30;;;;;;;;;;10528125;28;20132;-87
2023/07/18 17:07:19;;;;;;;3.63;2.03;;;;;;;;;;10519416;28;20032;-87
2023/07/18 17:12:20;;;;;;;5.63;1.70;;;;;;;;;;10523758;28;20052;-85
2023/07/18 17:17:21;;;;;;;3.22;2.22;;;;;;;;;;10542446;28;20061;-86
2023/07/18 17:22:23;;;;;;;4.78;3.20;;;;;;;;;;10543130;28;20028;-89
2023/07/18 17:27:24;;;;;;;2.58;2.00;;;;;;;;;;10528178;28;20025;-88
2023/07/18 17:33:05;;;;;;;3.60;2.35;;;;;;;;;;10528446;28;20040;-87
2023/07/18 17:44:12;;;;;;;5.03;2.43;;;;;;;;;;10524379;28;20040;-88
2023/07/18 17:49:33;;;;;;;4.90;2.42;;;;;;;;;;10523576;28;20024;-88
2023/07/18 17:54:34;;;;;;;4.93;2.17;;;;;;;;;;10485820;28;20632;-85
2023/07/18 17:59:35;;;;;;;5.03;2.65;;;;;;;;;;10512783;28;20044;-86
2023/07/18 18:04:36;;;;;;;4.55;2.08;;;;;;;;;;10533855;28;20122;-87
2023/07/18 18:09:39;;;;;;;6.90;2.03;;;;;;;;;;10511617;28;20495;-85
2023/07/18 18:15:11;;;;;;;3.13;2.00;;;;;;;;;;10541778;28;20084;-85
2023/07/18 18:20:12;;;;;;;6.13;2.22;;;;;;;;;;10554321;28;20034;-85
2023/07/18 18:25:16;;;;;;;3.63;2.20;;;;;;;;;;10535179;28;20675;-88
2023/07/18 18:30:17;;;;;;;5.72;2.35;;;;;;;;;;10527187;28;20739;-87
2023/07/18 18:35:19;;;;;;;4.38;2.75;;;;;;;;;;10527164;28;20093;-87
2023/07/18 18:40:20;;;;;;;5.40;2.60;;;;;;;;;;10533571;28;20052;-86
2023/07/18 18:45:21;;;;;;;3.80;2.47;;;;;;;;;;10528129;28;20064;-87
2023/07/18 18:50:22;;;;;;;4.13;2.33;;;;;;;;;;10532459;28;20036;-88
2023/07/18 18:55:23;;;;;;;6.80;2.63;;;;;;;;;;10533887;28;20075;-85
2023/07/18 19:00:24;;;;;;;3.65;2.45;;;;;;;;;;10528166;28;20391;-87
2023/07/18 19:05:25;;;;;;;4.03;2.38;;;;;;;;;;10531875;28;20046;-87
2023/07/18 19:10:27;;;;;;;3.42;2.38;;;;;;;;;;10529292;28;20032;-88
2023/07/18 19:15:28;;;;;;;5.20;2.50;;;;;;;;;;10526685;28;20092;-89
2023/07/18 19:20:29;;;;;;;5.40;2.70;;;;;;;;;;10539432;28;20039;-87
2023/07/18 19:25:30;;;;;;;4.55;3.13;;;;;;;;;;10545889;28;20035;-88
2023/07/18 19:30:31;;;;;;;4.65;3.00;;;;;;;;;;10551414;28;20038;-90
2023/07/18 19:35:32;;;;;;;6.13;3.38;;;;;;;;;;10527708;28;20043;-88
2023/07/18 19:40:34;;;;;;;4.40;3.05;;;;;;;;;;10522041;28;20052;-89
2023/07/18 19:45:35;;;;;;;8.43;3.90;;;;;;;;;;10536411;28;20380;-86
2023/07/18 19:50:40;;;;;;;6.85;3.60;;;;;;;;;;10547781;28;20023;-87
2023/07/18 19:55:41;;;;;;;6.90;3.47;;;;;;;;;;10537243;28;20028;-87
2023/07/18 20:00:43;;;;;;;6.20;4.25;;;;;;;;;;10550644;28;20036;-83
2023/07/18 20:05:44;;;;;;;7.47;3.78;;;;;;;;;;10529435;28;20660;-83
2023/07/18 20:10:45;;;;;;;6.32;3.58;;;;;;;;;;10534537;28;20036;-85
2023/07/18 20:15:46;;;;;;;6.70;3.88;;;;;;;;;;10535754;28;20051;-83
2023/07/18 20:20:47;;;;;;;6.10;3.90;;;;;;;;;;10546418;28;20038;-83
2023/07/18 20:25:48;;;;;;;8.40;4.03;;;;;;;;;;10539509;28;20085;-82
2023/07/18 20:30:51;;;;;;;5.60;3.50;;;;;;;;;;10565008;28;20036;-84
2023/07/18 20:35:52;;;;;;;6.50;3.28;;;;;;;;;;10557759;28;20476;-84
2023/07/18 20:40:57;;;;;;;4.95;3.20;;;;;;;;;;10556307;28;20055;-85
2023/07/18 20:45:58;;;;;;;;;;;;;;;;;;10569444;28;20027;-84
2023/07/18 20:50:59;;;;;;;7.13;4.15;;;;;;;;;;10576274;28;19907;-84
2023/07/18 20:56:00;;;;;;;8.95;4.40;;;;;;;;;;10551843;28;20053;-84
2023/07/18 21:01:01;;;;;;;7.35;3.78;;;;;;;;;;10575703;28;20055;-83
2023/07/18 21:06:02;;;;;;;7.40;4.10;;;;;;;;;;10530766;28;20036;-84
2023/07/18 21:11:03;;;;;;;7.68;4.13;;;;;;;;;;10540567;28;20032;-83
2023/07/18 21:16:04;;;;;;;7.15;3.85;;;;;;;;;;10575142;28;20110;-82
2023/07/18 21:21:05;;;;;;;7.55;3.60;;;;;;;;;;10576043;28;20387;-83
2023/07/18 21:26:06;;;;;;;7.13;4.13;;;;;;;;;;10570733;28;20150;-83
2023/07/18 21:31:07;;;;;;;5.95;4.32;;;;;;;;;;10558734;28;20030;-84
2023/07/18 21:36:08;;;;;;;6.05;4.18;;;;;;;;;;10573438;28;20034;-83
2023/07/18 21:41:09;;;;;;;6.45;3.97;;;;;;;;;;10544094;28;20055;-83
2023/07/18 21:46:10;;;;;;;5.60;4.20;;;;;;;;;;10553461;28;20020;-85
2023/07/18 21:51:11;;;;;;;6.90;3.88;;;;;;;;;;10574320;28;20036;-83
2023/07/18 21:56:13;;;;;;;6.97;4.28;;;;;;;;;;10549232;28;20039;-83
2023/07/18 22:01:14;;;;;;;7.40;4.55;;;;;;;;;;10556326;28;20380;-83
2023/07/18 22:06:15;;;;;;;12.57;4.90;;;;;;;;;;10550486;28;20027;-83
2023/07/18 22:11:16;;;;;;;8.55;4.63;;;;;;;;;;10516947;28;20047;-83
2023/07/18 22:16:17;;;;;;;5.88;4.10;;;;;;;;;;10560248;28;20421;-83
2023/07/18 22:21:18;;;;;;;7.40;4.38;;;;;;;;;;10573359;27;20042;-84
2023/07/18 22:26:19;;;;;;;7.32;4.13;;;;;;;;;;10546579;27;20042;-85
2023/07/18 22:31:20;;;;;;;8.98;5.22;;;;;;;;;;10572722;28;20707;-82
2023/07/18 22:36:21;;;;;;;7.18;4.50;;;;;;;;;;10572100;28;20093;-83
2023/07/18 22:41:22;;;;;;;9.57;5.30;;;;;;;;;;10546756;28;20043;-84
2023/07/18 22:46:23;;;;;;;10.45;5.80;;;;;;;;;;10550865;28;20024;-84
2023/07/18 22:51:25;;;;;;;9.95;5.38;;;;;;;;;;10528202;28;20114;-83
2023/07/18 22:56:26;;;;;;;10.50;5.18;;;;;;;;;;10540955;28;20036;-83
2023/07/18 23:01:27;;;;;;;7.75;5.03;;;;;;;;;;10570739;28;20023;-85
2023/07/18 23:06:28;;;;;;;6.93;4.55;;;;;;;;;;10570463;28;20035;-82
2023/07/18 23:11:29;;;;;;;9.73;4.88;;;;;;;;;;10551926;28;20724;-84
2023/07/18 23:16:30;;;;;;;11.20;4.53;;;;;;;;;;10570634;28;20039;-83
2023/07/18 23:21:31;;;;;;;7.57;4.68;;;;;;;;;;10549639;28;20180;-84
2023/07/18 23:26:32;;;;;;;9.48;4.63;;;;;;;;;;10545922;28;20084;-83
2023/07/18 23:31:33;;;;;;;13.35;5.85;;;;;;;;;;10569815;28;20024;-83
2023/07/18 23:36:34;;;;;;;10.55;5.10;;;;;;;;;;10569204;28;20063;-83
2023/07/18 23:41:35;;;;;;;8.93;5.07;;;;;;;;;;10545185;28;20055;-83
2023/07/18 23:46:36;;;;;;;9.90;4.35;;;;;;;;;;10547985;28;20047;-85
2023/07/18 23:51:37;;;;;;;8.63;4.70;;;;;;;;;;10566247;28;20024;-85
2023/07/18 23:56:38;;;;;;;9.13;4.40;;;;;;;;;;10551681;28;20035;-83
